createdAt,value
2018-02-27T00:00:25.630Z,9.25
2018-02-27T00:02:53.379Z,6.90
2018-02-27T00:05:20.968Z,12.60
2018-02-27T00:07:48.539Z,7.32
2018-02-27T00:10:17.051Z,10.13
2018-02-27T00:12:44.692Z,9.63
2018-02-27T00:15:13.051Z,8.85
2018-02-27T00:17:41.429Z,6.70
2018-02-27T00:20:09.862Z,9.93
2018-02-27T00:22:39.153Z,9.63
2018-02-27T00:25:06.800Z,8.95
2018-02-27T00:27:34.430Z,10.65
2018-02-27T00:30:02.756Z,9.77
2018-02-27T00:32:30.362Z,11.30
2018-02-27T00:34:58.731Z,13.00
2018-02-27T00:37:26.299Z,10.63
2018-02-27T00:39:54.782Z,9.43
2018-02-27T00:42:23.327Z,11.05
2018-02-27T00:44:50.894Z,10.35
2018-02-27T00:47:18.488Z,11.95
2018-02-27T00:49:47.019Z,11.85
2018-02-27T00:52:14.610Z,6.90
2018-02-27T00:54:42.170Z,15.10
2018-02-27T00:57:09.763Z,8.73
2018-02-27T00:59:37.362Z,12.27
2018-02-27T01:02:04.923Z,9.30
2018-02-27T01:04:32.534Z,13.55
2018-02-27T01:07:00.099Z,11.70
2018-02-27T01:09:27.656Z,10.70
2018-02-27T01:11:55.266Z,9.27
2018-02-27T01:14:22.839Z,14.27
2018-02-27T01:16:50.439Z,13.15
2018-02-27T01:19:18.003Z,13.50
2018-02-27T01:21:45.589Z,11.95
2018-02-27T01:24:13.140Z,9.77
2018-02-27T01:26:40.734Z,13.35
2018-02-27T01:29:09.108Z,11.50
2018-02-27T01:31:37.490Z,11.65
2018-02-27T01:34:05.074Z,13.20
2018-02-27T01:36:32.646Z,12.35
2018-02-27T01:39:00.233Z,17.45
2018-02-27T01:41:27.803Z,11.12
2018-02-27T01:43:55.394Z,11.15
2018-02-27T01:46:23.724Z,11.43
2018-02-27T01:48:51.349Z,11.98
2018-02-27T01:51:19.034Z,11.38
2018-02-27T01:53:46.747Z,13.68
2018-02-27T01:56:15.255Z,12.35
2018-02-27T01:58:42.822Z,13.10
2018-02-27T02:01:10.410Z,10.68
2018-02-27T02:03:37.966Z,15.10
2018-02-27T02:06:05.564Z,14.27
2018-02-27T02:08:34.086Z,11.40
2018-02-27T02:11:01.790Z,12.63
2018-02-27T02:13:29.348Z,14.93
2018-02-27T02:15:56.915Z,12.98
2018-02-27T02:18:24.530Z,18.10
2018-02-27T02:20:52.092Z,12.95
2018-02-27T02:23:19.699Z,15.77
2018-02-27T02:25:48.050Z,11.82
2018-02-27T02:28:15.646Z,13.60
2018-02-27T02:30:44.126Z,14.38
2018-02-27T02:33:12.459Z,17.30
2018-02-27T02:35:40.243Z,12.55
2018-02-27T02:38:07.854Z,15.23
2018-02-27T02:40:35.447Z,11.48
2018-02-27T02:43:03.032Z,12.50
2018-02-27T02:45:31.358Z,12.70
2018-02-27T02:47:58.942Z,17.62
2018-02-27T02:50:26.518Z,13.48
2018-02-27T02:52:54.875Z,13.88
2018-02-27T02:55:22.502Z,10.45
2018-02-27T02:57:50.123Z,13.32
2018-02-27T03:00:18.478Z,18.65
2018-02-27T03:02:46.072Z,14.75
2018-02-27T03:05:14.472Z,13.50
2018-02-27T03:07:42.046Z,9.93
2018-02-27T03:10:09.639Z,18.75
2018-02-27T03:12:37.326Z,13.35
2018-02-27T03:15:05.711Z,13.57
2018-02-27T03:17:33.410Z,12.18
2018-02-27T03:20:00.980Z,15.93
2018-02-27T03:22:28.640Z,14.15
2018-02-27T03:24:56.211Z,13.43
2018-02-27T03:27:23.798Z,16.48
2018-02-27T03:29:52.364Z,15.95
2018-02-27T03:32:19.923Z,16.70
2018-02-27T03:34:48.336Z,11.98
2018-02-27T03:37:15.932Z,14.32
2018-02-27T03:39:43.508Z,15.93
2018-02-27T03:42:11.256Z,15.88
2018-02-27T03:44:38.826Z,16.50
2018-02-27T03:47:06.483Z,18.20
2018-02-27T03:49:34.135Z,12.50
2018-02-27T03:52:01.903Z,14.70
2018-02-27T03:54:29.483Z,12.02
2018-02-27T03:56:57.106Z,13.40
2018-02-27T03:59:24.698Z,16.00
2018-02-27T04:01:52.255Z,15.88
2018-02-27T04:04:19.851Z,17.08
2018-02-27T04:06:47.415Z,17.58
2018-02-27T04:09:15.046Z,13.70
2018-02-27T04:11:43.602Z,17.90
2018-02-27T04:14:11.166Z,18.60
2018-02-27T04:16:38.788Z,27.75
2018-02-27T04:19:07.078Z,13.75
2018-02-27T04:21:34.778Z,11.50
2018-02-27T04:24:03.111Z,13.98
2018-02-27T04:26:30.691Z,13.30
2018-02-27T04:28:58.255Z,15.05
2018-02-27T04:31:25.835Z,15.32
2018-02-27T04:33:54.191Z,15.80
2018-02-27T04:36:21.770Z,17.50
2018-02-27T04:38:50.118Z,11.48
2018-02-27T04:41:17.795Z,13.62
2018-02-27T04:43:45.383Z,13.18
2018-02-27T04:46:12.929Z,13.60
2018-02-27T04:48:41.380Z,16.20
2018-02-27T04:51:09.152Z,14.00
2018-02-27T04:53:36.730Z,12.48
2018-02-27T04:56:05.058Z,18.23
2018-02-27T04:58:32.743Z,17.10
2018-02-27T05:01:00.302Z,12.25
2018-02-27T05:03:27.902Z,16.67
2018-02-27T05:05:55.502Z,16.15
2018-02-27T05:08:23.126Z,21.23
2018-02-27T05:10:50.698Z,14.10
2018-02-27T05:13:18.287Z,13.40
2018-02-27T05:15:45.914Z,17.05
2018-02-27T05:18:13.567Z,29.90
2018-02-27T05:20:41.134Z,20.85
2018-02-27T05:23:08.746Z,13.80
2018-02-27T05:25:36.302Z,12.07
2018-02-27T05:28:03.866Z,22.30
2018-02-27T05:30:32.219Z,11.65
2018-02-27T05:32:59.855Z,16.52
2018-02-27T05:35:27.446Z,15.60
2018-02-27T05:37:55.024Z,15.32
2018-02-27T05:40:23.461Z,18.75
2018-02-27T05:42:51.046Z,20.33
2018-02-27T05:45:18.603Z,18.52
2018-02-27T05:47:46.374Z,14.30
2018-02-27T05:50:13.987Z,15.48
2018-02-27T05:52:41.689Z,18.10
2018-02-27T05:55:09.447Z,18.92
2018-02-27T05:57:37.051Z,16.55
2018-02-27T06:00:04.640Z,14.85
2018-02-27T06:02:32.255Z,12.95
2018-02-27T06:05:00.690Z,14.05
2018-02-27T06:07:29.775Z,19.52
2018-02-27T06:09:57.380Z,14.87
2018-02-27T06:12:25.702Z,18.92
2018-02-27T06:14:53.299Z,17.52
2018-02-27T06:17:20.902Z,16.12
2018-02-27T06:19:48.506Z,17.98
2018-02-27T06:22:16.106Z,15.35
2018-02-27T06:24:43.745Z,16.67
2018-02-27T06:27:12.135Z,23.85
2018-02-27T06:29:40.464Z,26.73
2018-02-27T06:32:08.075Z,19.05
2018-02-27T06:34:35.710Z,14.75
2018-02-27T06:37:03.267Z,14.40
2018-02-27T06:39:30.875Z,17.55
2018-02-27T06:41:58.450Z,16.73
2018-02-27T06:44:26.051Z,14.20
2018-02-27T06:46:54.403Z,19.10
2018-02-27T06:49:21.970Z,16.87
2018-02-27T06:51:49.592Z,16.45
2018-02-27T06:54:17.158Z,18.08
2018-02-27T06:56:44.754Z,18.12
2018-02-27T06:59:12.366Z,20.90
2018-02-27T07:01:39.935Z,20.90
2018-02-27T07:04:07.510Z,17.58
2018-02-27T07:06:35.147Z,15.02
2018-02-27T07:09:02.737Z,21.52
2018-02-27T07:11:30.361Z,14.75
2018-02-27T07:13:57.925Z,19.20
2018-02-27T07:16:25.522Z,14.63
2018-02-27T07:18:53.076Z,17.00
2018-02-27T07:21:20.907Z,20.27
2018-02-27T07:23:48.478Z,16.50
2018-02-27T07:26:16.075Z,18.02
2018-02-27T07:28:43.634Z,21.02
2018-02-27T07:31:11.998Z,25.55
2018-02-27T07:33:39.697Z,19.75
2018-02-27T07:36:07.358Z,20.58
2018-02-27T07:38:35.043Z,17.55
2018-02-27T07:41:02.807Z,20.52
2018-02-27T07:43:30.374Z,18.75
2018-02-27T07:45:57.983Z,9.10
2018-02-27T07:48:26.340Z,16.48
2018-02-27T07:50:53.936Z,15.68
2018-02-27T07:53:21.503Z,19.30
2018-02-27T07:55:49.095Z,15.57
2018-02-27T07:58:16.659Z,16.95
2018-02-27T08:00:44.238Z,22.15
2018-02-27T08:03:11.829Z,19.50
2018-02-27T08:05:39.399Z,20.95
2018-02-27T08:08:07.058Z,19.77
2018-02-27T08:10:34.626Z,17.90
2018-02-27T08:13:02.214Z,19.55
2018-02-27T08:15:29.797Z,16.25
2018-02-27T08:17:58.242Z,24.17
2018-02-27T08:20:25.806Z,20.20
2018-02-27T08:22:53.376Z,17.75
2018-02-27T08:25:20.974Z,25.20
2018-02-27T08:27:49.338Z,23.95
2018-02-27T08:30:17.733Z,19.92
2018-02-27T08:32:45.295Z,24.27
2018-02-27T08:35:12.906Z,20.17
2018-02-27T08:37:40.532Z,18.25
2018-02-27T08:40:08.894Z,29.83
2018-02-27T08:42:36.634Z,18.42
2018-02-27T08:45:04.990Z,19.23
2018-02-27T08:47:32.898Z,16.52
2018-02-27T08:50:00.468Z,23.67
2018-02-27T08:52:28.080Z,20.98
2018-02-27T08:54:55.655Z,22.10
2018-02-27T08:57:24.095Z,20.92
2018-02-27T08:59:51.670Z,13.60
2018-02-27T09:02:19.279Z,21.50
2018-02-27T09:04:46.843Z,18.90
2018-02-27T09:07:14.406Z,27.37
2018-02-27T09:09:41.999Z,22.48
2018-02-27T09:12:09.574Z,21.17
2018-02-27T09:14:37.171Z,20.17
2018-02-27T09:17:04.728Z,26.40
2018-02-27T09:19:32.326Z,23.00
2018-02-27T09:21:59.903Z,22.50
2018-02-27T09:24:27.489Z,21.62
2018-02-27T09:26:55.091Z,19.67
2018-02-27T09:29:22.702Z,23.80
2018-02-27T09:31:51.263Z,24.27
2018-02-27T09:34:18.819Z,22.83
2018-02-27T09:36:46.410Z,24.30
2018-02-27T09:39:13.988Z,21.30
2018-02-27T09:41:41.587Z,23.75
2018-02-27T09:44:09.155Z,17.83
2018-02-27T09:46:36.715Z,25.85
2018-02-27T09:49:04.307Z,29.45
2018-02-27T09:51:31.874Z,25.35
2018-02-27T09:53:59.480Z,23.17
2018-02-27T09:56:27.066Z,21.50
2018-02-27T09:58:54.654Z,29.48
2018-02-27T10:01:22.225Z,24.17
2018-02-27T10:03:49.803Z,24.70
2018-02-27T10:06:17.429Z,28.05
2018-02-27T10:08:45.732Z,23.48
2018-02-27T10:11:13.322Z,22.20
2018-02-27T10:13:41.012Z,24.73
2018-02-27T10:16:08.644Z,21.62
2018-02-27T10:18:36.320Z,27.05
2018-02-27T10:21:04.666Z,28.62
2018-02-27T10:23:32.269Z,16.77
2018-02-27T10:25:59.882Z,18.73
2018-02-27T10:28:27.491Z,22.65
2018-02-27T10:30:55.058Z,30.23
2018-02-27T10:33:22.663Z,22.60
2018-02-27T10:35:50.363Z,24.98
2018-02-27T10:38:17.931Z,26.17
2018-02-27T10:40:45.523Z,22.65
2018-02-27T10:43:13.082Z,25.33
2018-02-27T10:45:40.692Z,20.20
2018-02-27T10:48:09.039Z,24.95
2018-02-27T10:50:36.636Z,27.95
2018-02-27T10:53:04.213Z,26.73
2018-02-27T10:55:31.881Z,31.80
2018-02-27T10:57:59.455Z,24.80
2018-02-27T11:00:32.834Z,27.95
2018-02-27T11:03:00.524Z,24.95
2018-02-27T11:05:28.145Z,21.25
2018-02-27T11:07:55.726Z,22.98
2018-02-27T11:10:23.304Z,20.58
2018-02-27T11:12:50.922Z,22.50
2018-02-27T11:15:18.496Z,25.12
2018-02-27T11:17:46.114Z,25.58
2018-02-27T11:20:14.442Z,28.67
2018-02-27T11:22:42.085Z,24.35
2018-02-27T11:25:09.715Z,25.85
2018-02-27T11:27:38.076Z,22.00
2018-02-27T11:30:05.823Z,22.17
2018-02-27T11:32:33.394Z,21.42
2018-02-27T11:35:01.907Z,26.62
2018-02-27T11:37:29.471Z,27.20
2018-02-27T11:39:57.036Z,25.90
2018-02-27T11:42:24.614Z,25.15
2018-02-27T11:44:52.176Z,29.10
2018-02-27T11:47:19.822Z,28.52
2018-02-27T11:49:47.395Z,28.30
2018-02-27T11:52:15.097Z,39.67
2018-02-27T11:54:43.421Z,33.10
2018-02-27T11:57:11.033Z,27.95
2018-02-27T11:59:39.421Z,28.65
2018-02-27T12:02:07.759Z,28.90
2018-02-27T12:04:35.335Z,25.90
2018-02-27T12:07:02.926Z,26.17
2018-02-27T12:09:30.514Z,23.20
2018-02-27T12:11:58.131Z,23.00
2018-02-27T12:14:26.500Z,23.70
2018-02-27T12:16:54.858Z,24.70
2018-02-27T12:19:22.426Z,17.60
2018-02-27T12:21:50.051Z,25.50
2018-02-27T12:24:17.607Z,24.25
2018-02-27T12:26:45.208Z,24.52
2018-02-27T12:29:13.606Z,23.02
2018-02-27T12:31:41.174Z,24.40
2018-02-27T12:34:08.775Z,19.55
2018-02-27T12:36:36.474Z,30.73
2018-02-27T12:39:04.872Z,29.23
2018-02-27T12:41:32.659Z,30.67
2018-02-27T12:44:00.254Z,32.40
2018-02-27T12:46:27.974Z,28.05
2018-02-27T12:48:55.562Z,29.83
2018-02-27T12:51:23.155Z,26.75
2018-02-27T12:53:51.546Z,34.53
2018-02-27T12:56:19.126Z,25.10
2018-02-27T12:58:46.722Z,27.80
2018-02-27T13:01:14.369Z,30.20
2018-02-27T13:03:41.975Z,25.95
2018-02-27T13:06:09.573Z,28.70
2018-02-27T13:08:37.179Z,33.53
2018-02-27T13:11:05.177Z,25.80
2018-02-27T13:13:32.774Z,29.90
2018-02-27T13:16:00.386Z,30.62
2018-02-27T13:18:28.894Z,25.45
2018-02-27T13:20:56.503Z,27.30
2018-02-27T13:23:24.231Z,21.45
2018-02-27T13:25:51.878Z,25.52
2018-02-27T13:28:19.435Z,32.38
2018-02-27T13:30:47.022Z,26.60
2018-02-27T13:33:14.716Z,24.23
2018-02-27T13:35:43.050Z,26.65
2018-02-27T13:38:10.688Z,22.83
2018-02-27T13:40:38.266Z,20.27
2018-02-27T13:43:05.861Z,21.35
2018-02-27T13:45:34.200Z,31.62
2018-02-27T13:48:01.812Z,22.87
2018-02-27T13:50:30.147Z,24.00
2018-02-27T13:52:57.829Z,29.48
2018-02-27T13:55:25.387Z,31.00
2018-02-27T13:57:52.966Z,25.52
2018-02-27T14:00:21.484Z,25.58
2018-02-27T14:02:49.066Z,26.05
2018-02-27T14:05:16.654Z,29.17
2018-02-27T14:07:45.000Z,25.60
2018-02-27T14:10:12.599Z,27.02
2018-02-27T14:12:40.971Z,26.27
2018-02-27T14:15:09.389Z,25.90
2018-02-27T14:17:37.119Z,30.55
2018-02-27T14:20:05.455Z,26.92
2018-02-27T14:22:33.058Z,26.35
2018-02-27T14:25:01.395Z,29.10
2018-02-27T14:27:28.994Z,29.27
2018-02-27T14:29:57.331Z,28.12
2018-02-27T14:32:24.935Z,30.12
2018-02-27T14:34:52.579Z,33.00
2018-02-27T14:37:20.938Z,33.08
2018-02-27T14:39:48.553Z,34.28
2018-02-27T14:42:16.130Z,34.38
2018-02-27T14:44:43.735Z,28.05
2018-02-27T14:47:12.081Z,31.92
2018-02-27T14:49:39.714Z,27.62
2018-02-27T14:52:07.274Z,34.40
2018-02-27T14:54:34.900Z,28.17
2018-02-27T14:57:02.483Z,38.90
2018-02-27T14:59:30.087Z,28.23
2018-02-27T15:01:59.356Z,30.00
2018-02-27T15:04:26.964Z,22.13
2018-02-27T15:06:55.295Z,32.25
2018-02-27T15:09:23.057Z,24.63
2018-02-27T15:11:50.619Z,35.60
2018-02-27T15:14:18.191Z,29.37
2018-02-27T15:16:45.791Z,32.42
2018-02-27T15:19:14.374Z,32.35
2018-02-27T15:21:42.071Z,35.03
2018-02-27T15:24:09.759Z,28.20
2018-02-27T15:26:37.349Z,29.77
2018-02-27T15:29:05.836Z,34.15
2018-02-27T15:31:33.444Z,39.55
2018-02-27T15:34:01.030Z,25.92
2018-02-27T15:36:28.646Z,22.10
2018-02-27T15:38:56.245Z,35.17
2018-02-27T15:41:23.848Z,36.40
2018-02-27T15:43:51.416Z,35.03
2018-02-27T15:46:19.030Z,28.48
2018-02-27T15:48:47.380Z,28.83
2018-02-27T15:51:14.991Z,30.33
2018-02-27T15:53:42.555Z,27.95
2018-02-27T15:56:10.135Z,31.17
2018-02-27T15:58:37.735Z,34.30
2018-02-27T16:01:05.326Z,26.23
2018-02-27T16:03:32.923Z,37.90
2018-02-27T16:06:01.443Z,29.08
2018-02-27T16:08:29.835Z,28.75
2018-02-27T16:10:57.407Z,33.08
2018-02-27T16:13:25.002Z,27.13
2018-02-27T16:15:52.666Z,30.67
2018-02-27T16:18:20.250Z,33.22
2018-02-27T16:20:47.806Z,25.62
2018-02-27T16:23:15.387Z,30.95
2018-02-27T16:25:42.990Z,22.17
2018-02-27T16:28:10.564Z,30.23
2018-02-27T16:30:38.182Z,31.98
2018-02-27T16:33:05.773Z,27.08
2018-02-27T16:35:33.435Z,32.38
2018-02-27T16:38:01.022Z,22.10
2018-02-27T16:40:28.768Z,25.42
2018-02-27T16:42:56.382Z,28.10
2018-02-27T16:45:23.958Z,29.27
2018-02-27T16:47:51.586Z,34.10
2018-02-27T16:50:19.916Z,30.52
2018-02-27T16:52:47.539Z,28.95
2018-02-27T16:55:15.164Z,28.55
2018-02-27T16:57:43.576Z,27.37
2018-02-27T17:00:11.147Z,22.45
2018-02-27T17:02:38.759Z,29.75
2018-02-27T17:05:06.520Z,29.65
2018-02-27T17:07:34.095Z,24.33
2018-02-27T17:10:02.567Z,27.55
2018-02-27T17:12:30.979Z,27.23
2018-02-27T17:14:58.601Z,29.08
2018-02-27T17:17:26.178Z,29.50
2018-02-27T17:19:54.550Z,31.05
2018-02-27T17:22:22.884Z,28.38
2018-02-27T17:24:50.455Z,26.00
2018-02-27T17:27:18.054Z,26.65
2018-02-27T17:29:45.621Z,35.35
2018-02-27T17:32:13.215Z,36.35
2018-02-27T17:34:40.852Z,30.92
2018-02-27T17:37:08.431Z,28.20
2018-02-27T17:39:36.116Z,32.35
2018-02-27T17:42:03.758Z,39.92
2018-02-27T17:44:31.355Z,30.58
2018-02-27T17:46:59.715Z,26.35
2018-02-27T17:49:27.323Z,31.58
2018-02-27T17:51:54.878Z,34.40
2018-02-27T17:54:22.490Z,29.05
2018-02-27T17:56:50.090Z,27.15
2018-02-27T17:59:17.668Z,39.50
2018-02-27T18:01:45.280Z,31.83
2018-02-27T18:04:13.646Z,35.63
2018-02-27T18:06:41.215Z,30.45
2018-02-27T18:09:09.587Z,29.73
2018-02-27T18:11:37.184Z,38.30
2018-02-27T18:14:04.764Z,32.15
2018-02-27T18:16:32.354Z,34.25
2018-02-27T18:18:59.934Z,24.02
2018-02-27T18:21:28.295Z,34.80
2018-02-27T18:23:55.868Z,33.03
2018-02-27T18:26:24.286Z,31.45
2018-02-27T18:28:52.078Z,37.10
2018-02-27T18:31:19.647Z,25.17
2018-02-27T18:33:47.267Z,33.80
2018-02-27T18:36:14.857Z,31.52
2018-02-27T18:38:42.470Z,33.30
2018-02-27T18:41:10.059Z,35.08
2018-02-27T18:43:37.683Z,32.65
2018-02-27T18:46:05.374Z,42.80
2018-02-27T18:48:32.964Z,32.80
2018-02-27T18:51:00.566Z,29.42
2018-02-27T18:53:28.154Z,26.62
2018-02-27T18:55:55.858Z,32.67
2018-02-27T18:58:24.195Z,35.30
2018-02-27T19:00:51.815Z,28.67
2018-02-27T19:03:19.407Z,32.70
2018-02-27T19:05:47.026Z,33.85
2018-02-27T19:08:15.387Z,24.60
2018-02-27T19:10:42.975Z,34.10
2018-02-27T19:13:10.577Z,33.72
2018-02-27T19:15:38.152Z,28.65
2018-02-27T19:18:05.779Z,25.00
2018-02-27T19:20:33.326Z,31.45
2018-02-27T19:23:00.926Z,36.30
2018-02-27T19:25:28.522Z,33.45
2018-02-27T19:27:56.894Z,27.70
2018-02-27T19:30:25.238Z,28.95
2018-02-27T19:32:52.838Z,36.03
2018-02-27T19:35:20.483Z,33.92
2018-02-27T19:37:48.861Z,18.50
2018-02-27T19:40:17.298Z,36.17
2018-02-27T19:42:44.950Z,30.52
2018-02-27T19:45:12.567Z,38.55
2018-02-27T19:47:40.932Z,23.92
2018-02-27T19:50:09.292Z,34.03
2018-02-27T19:52:36.861Z,37.80
2018-02-27T19:55:04.475Z,37.95
2018-02-27T19:57:32.200Z,29.80
2018-02-27T20:00:00.675Z,24.12
2018-02-27T20:02:29.026Z,34.47
2018-02-27T20:04:56.659Z,35.47
2018-02-27T20:07:24.273Z,27.70
2018-02-27T20:09:52.619Z,34.42
2018-02-27T20:12:20.251Z,31.77
2018-02-27T20:14:47.841Z,34.72
2018-02-27T20:17:15.467Z,35.88
2018-02-27T20:19:43.037Z,29.27
2018-02-27T20:22:10.672Z,37.17
2018-02-27T20:24:38.338Z,35.97
2018-02-27T20:27:05.956Z,30.70
2018-02-27T20:29:33.544Z,33.40
2018-02-27T20:32:01.225Z,20.37
2018-02-27T20:34:32.566Z,28.25
2018-02-27T20:37:00.127Z,34.88
2018-02-27T20:39:27.747Z,27.10
2018-02-27T20:41:56.104Z,24.30
2018-02-27T20:44:23.718Z,29.87
2018-02-27T20:46:51.305Z,30.60
2018-02-27T20:49:18.910Z,31.05
2018-02-27T20:51:47.308Z,26.15
2018-02-27T20:54:14.909Z,23.80
2018-02-27T20:56:42.509Z,31.92
2018-02-27T20:59:10.899Z,27.50
2018-02-27T21:01:38.487Z,25.48
2018-02-27T21:04:06.092Z,30.00
2018-02-27T21:06:34.423Z,27.80
2018-02-27T21:09:02.060Z,31.60
2018-02-27T21:11:29.643Z,32.53
2018-02-27T21:13:57.267Z,36.63
2018-02-27T21:16:24.851Z,31.12
2018-02-27T21:18:52.445Z,35.63
2018-02-27T21:21:20.087Z,31.95
2018-02-27T21:23:47.660Z,27.90
2018-02-27T21:26:15.285Z,39.55
2018-02-27T21:28:42.887Z,23.73
2018-02-27T21:31:10.541Z,31.00
2018-02-27T21:33:38.112Z,33.35
2018-02-27T21:36:05.750Z,28.08
2018-02-27T21:38:33.404Z,30.23
2018-02-27T21:41:01.824Z,28.23
2018-02-27T21:43:30.194Z,31.48
2018-02-27T21:45:58.548Z,34.72
2018-02-27T21:48:26.160Z,43.72
2018-02-27T21:50:53.747Z,33.55
2018-02-27T21:53:21.349Z,31.12
2018-02-27T21:55:48.928Z,42.03
2018-02-27T21:58:17.442Z,34.72
2018-02-27T22:00:45.029Z,32.53
2018-02-27T22:03:12.655Z,31.40
2018-02-27T22:05:40.291Z,29.83
2018-02-27T22:08:08.183Z,33.60
2018-02-27T22:10:35.793Z,35.70
2018-02-27T22:13:03.379Z,42.62
2018-02-27T22:15:30.977Z,35.45
2018-02-27T22:17:58.782Z,51.35
2018-02-27T22:20:27.174Z,30.73
2018-02-27T22:22:54.810Z,35.92
2018-02-27T22:25:22.399Z,35.95
2018-02-27T22:27:49.987Z,36.33
2018-02-27T22:30:17.576Z,35.90
2018-02-27T22:32:45.275Z,39.15
2018-02-27T22:35:13.622Z,42.70
2018-02-27T22:37:41.238Z,36.78
2018-02-27T22:40:08.811Z,31.87
2018-02-27T22:42:36.722Z,35.05
2018-02-27T22:45:05.228Z,35.40
2018-02-27T22:47:33.507Z,35.90
2018-02-27T22:50:01.167Z,34.33
2018-02-27T22:52:28.795Z,35.45
2018-02-27T22:54:57.140Z,45.50
2018-02-27T22:57:25.007Z,35.53
2018-02-27T22:59:53.027Z,46.50
2018-02-27T23:02:20.714Z,34.38
2018-02-27T23:04:48.355Z,38.67
2018-02-27T23:07:16.055Z,43.80
2018-02-27T23:09:45.020Z,43.92
2018-02-27T23:12:12.672Z,36.97
2018-02-27T23:14:40.261Z,39.40
2018-02-27T23:17:08.012Z,39.88
2018-02-27T23:19:35.576Z,40.67
2018-02-27T23:22:03.147Z,45.20
2018-02-27T23:24:38.235Z,42.13
2018-02-27T23:27:07.739Z,40.33
2018-02-27T23:29:36.306Z,45.30
2018-02-27T23:32:05.718Z,47.50
2018-02-27T23:34:33.714Z,47.92
2018-02-27T23:37:02.011Z,49.33
2018-02-27T23:39:29.619Z,43.55
2018-02-27T23:41:57.190Z,49.20
2018-02-27T23:44:24.772Z,42.47
2018-02-27T23:46:52.530Z,41.70
2018-02-27T23:49:20.979Z,44.13
2018-02-27T23:51:48.652Z,46.37
2018-02-27T23:54:16.272Z,43.78
2018-02-27T23:56:43.838Z,46.33
2018-02-27T23:59:12.198Z,47.67
